sensor_id;sensor_type;location;lat;lon;timestamp;P1;durP1;ratioP1;P2;durP2;ratioP2
60068;SDS011;45945;53.350;55.922;2022-10-31T00:01:10;2.05;;;0.80;;
60068;SDS011;45945;53.350;55.922;2022-10-31T00:02:21;3.28;;;0.75;;
60068;SDS011;45945;53.350;55.922;2022-10-31T00:03:22;2.05;;;0.70;;
60068;SDS011;45945;53.350;55.922;2022-10-31T00:04:23;2.00;;;0.80;;
60068;SDS011;45945;53.350;55.922;2022-10-31T00:05:25;2.00;;;0.85;;
60068;SDS011;45945;53.350;55.922;2022-10-31T00:06:28;2.05;;;0.90;;
60068;SDS011;45945;53.350;55.922;2022-10-31T00:07:29;2.50;;;0.70;;
60068;SDS011;45945;53.350;55.922;2022-10-31T00:08:30;1.55;;;0.70;;
60068;SDS011;45945;53.350;55.922;2022-10-31T00:09:31;1.63;;;0.68;;
60068;SDS011;45945;53.350;55.922;2022-10-31T00:10:32;1.30;;;0.70;;
60068;SDS011;45945;53.350;55.922;2022-10-31T00:11:33;2.15;;;0.90;;
60068;SDS011;45945;53.350;55.922;2022-10-31T00:12:38;1.52;;;0.80;;
60068;SDS011;45945;53.350;55.922;2022-10-31T00:13:43;0.88;;;0.63;;
60068;SDS011;45945;53.350;55.922;2022-10-31T00:14:47;2.35;;;0.90;;
60068;SDS011;45945;53.350;55.922;2022-10-31T00:15:48;2.88;;;0.85;;
60068;SDS011;45945;53.350;55.922;2022-10-31T00:16:53;1.33;;;0.63;;
60068;SDS011;45945;53.350;55.922;2022-10-31T00:17:58;1.88;;;0.70;;
60068;SDS011;45945;53.350;55.922;2022-10-31T00:19:06;1.75;;;0.70;;
60068;SDS011;45945;53.350;55.922;2022-10-31T00:20:08;2.72;;;0.90;;
60068;SDS011;45945;53.350;55.922;2022-10-31T00:21:09;1.50;;;0.68;;
60068;SDS011;45945;53.350;55.922;2022-10-31T00:22:10;2.55;;;0.70;;
60068;SDS011;45945;53.350;55.922;2022-10-31T00:23:11;1.13;;;0.68;;
60068;SDS011;45945;53.350;55.922;2022-10-31T00:24:12;1.92;;;0.80;;
60068;SDS011;45945;53.350;55.922;2022-10-31T00:25:13;2.50;;;0.90;;
60068;SDS011;45945;53.350;55.922;2022-10-31T00:26:14;1.45;;;0.60;;
60068;SDS011;45945;53.350;55.922;2022-10-31T00:27:17;2.05;;;0.70;;
60068;SDS011;45945;53.350;55.922;2022-10-31T00:28:18;1.75;;;0.65;;
60068;SDS011;45945;53.350;55.922;2022-10-31T00:29:38;1.20;;;0.57;;
60068;SDS011;45945;53.350;55.922;2022-10-31T00:30:39;1.25;;;0.57;;
60068;SDS011;45945;53.350;55.922;2022-10-31T00:31:40;1.45;;;0.60;;
60068;SDS011;45945;53.350;55.922;2022-10-31T00:32:41;2.35;;;0.80;;
60068;SDS011;45945;53.350;55.922;2022-10-31T00:33:42;2.70;;;0.80;;
60068;SDS011;45945;53.350;55.922;2022-10-31T00:34:43;2.40;;;0.80;;
60068;SDS011;45945;53.350;55.922;2022-10-31T00:35:49;2.72;;;1.00;;
60068;SDS011;45945;53.350;55.922;2022-10-31T00:37:09;3.33;;;0.95;;
60068;SDS011;45945;53.350;55.922;2022-10-31T00:38:10;1.63;;;0.80;;
60068;SDS011;45945;53.350;55.922;2022-10-31T00:39:11;2.33;;;0.93;;
60068;SDS011;45945;53.350;55.922;2022-10-31T00:40:13;2.17;;;0.70;;
60068;SDS011;45945;53.350;55.922;2022-10-31T00:41:14;2.00;;;0.88;;
60068;SDS011;45945;53.350;55.922;2022-10-31T00:42:17;1.20;;;0.70;;
60068;SDS011;45945;53.350;55.922;2022-10-31T00:43:19;1.30;;;0.70;;
60068;SDS011;45945;53.350;55.922;2022-10-31T00:44:20;1.88;;;0.80;;
60068;SDS011;45945;53.350;55.922;2022-10-31T00:45:21;3.22;;;0.90;;
60068;SDS011;45945;53.350;55.922;2022-10-31T00:46:21;1.92;;;0.90;;
60068;SDS011;45945;53.350;55.922;2022-10-31T00:47:24;2.40;;;0.90;;
60068;SDS011;45945;53.350;55.922;2022-10-31T00:48:25;2.05;;;1.00;;
60068;SDS011;45945;53.350;55.922;2022-10-31T00:49:27;2.15;;;0.88;;
60068;SDS011;45945;53.350;55.922;2022-10-31T00:50:30;1.98;;;0.80;;
60068;SDS011;45945;53.350;55.922;2022-10-31T00:51:31;2.15;;;0.82;;
60068;SDS011;45945;53.350;55.922;2022-10-31T00:52:33;2.38;;;1.00;;
60068;SDS011;45945;53.350;55.922;2022-10-31T00:53:34;2.75;;;1.00;;
60068;SDS011;45945;53.350;55.922;2022-10-31T00:54:35;2.28;;;1.00;;
60068;SDS011;45945;53.350;55.922;2022-10-31T00:55:36;2.78;;;1.08;;
60068;SDS011;45945;53.350;55.922;2022-10-31T00:56:37;2.75;;;1.10;;
60068;SDS011;45945;53.350;55.922;2022-10-31T00:57:38;3.03;;;1.20;;
60068;SDS011;45945;53.350;55.922;2022-10-31T00:58:39;3.00;;;1.23;;
60068;SDS011;45945;53.350;55.922;2022-10-31T00:59:41;2.58;;;1.00;;
60068;SDS011;45945;53.350;55.922;2022-10-31T01:00:49;3.58;;;1.50;;
60068;SDS011;45945;53.350;55.922;2022-10-31T01:01:56;4.05;;;1.27;;
60068;SDS011;45945;53.350;55.922;2022-10-31T01:02:57;3.08;;;1.15;;
60068;SDS011;45945;53.350;55.922;2022-10-31T01:03:58;3.75;;;1.40;;
60068;SDS011;45945;53.350;55.922;2022-10-31T01:05:00;2.95;;;1.13;;
60068;SDS011;45945;53.350;55.922;2022-10-31T01:06:05;2.50;;;1.00;;
60068;SDS011;45945;53.350;55.922;2022-10-31T01:07:11;3.88;;;1.40;;
60068;SDS011;45945;53.350;55.922;2022-10-31T01:08:14;4.05;;;1.60;;
60068;SDS011;45945;53.350;55.922;2022-10-31T01:09:17;3.35;;;1.40;;
60068;SDS011;45945;53.350;55.922;2022-10-31T01:10:18;2.80;;;1.20;;
60068;SDS011;45945;53.350;55.922;2022-10-31T01:11:21;3.08;;;1.10;;
60068;SDS011;45945;53.350;55.922;2022-10-31T01:12:23;3.75;;;1.17;;
60068;SDS011;45945;53.350;55.922;2022-10-31T01:13:24;3.10;;;1.35;;
60068;SDS011;45945;53.350;55.922;2022-10-31T01:14:25;3.80;;;1.50;;
60068;SDS011;45945;53.350;55.922;2022-10-31T01:15:26;2.45;;;1.02;;
60068;SDS011;45945;53.350;55.922;2022-10-31T01:16:27;3.85;;;1.25;;
60068;SDS011;45945;53.350;55.922;2022-10-31T01:17:31;2.83;;;1.10;;
60068;SDS011;45945;53.350;55.922;2022-10-31T01:18:32;3.15;;;1.30;;
60068;SDS011;45945;53.350;55.922;2022-10-31T01:19:35;3.72;;;1.20;;
60068;SDS011;45945;53.350;55.922;2022-10-31T01:20:58;2.90;;;1.08;;
60068;SDS011;45945;53.350;55.922;2022-10-31T01:21:59;1.92;;;0.90;;
60068;SDS011;45945;53.350;55.922;2022-10-31T01:23:04;2.55;;;1.00;;
60068;SDS011;45945;53.350;55.922;2022-10-31T01:24:05;2.25;;;1.10;;
60068;SDS011;45945;53.350;55.922;2022-10-31T01:25:06;2.13;;;0.80;;
60068;SDS011;45945;53.350;55.922;2022-10-31T01:26:10;2.05;;;0.90;;
60068;SDS011;45945;53.350;55.922;2022-10-31T01:27:14;3.67;;;1.40;;
60068;SDS011;45945;53.350;55.922;2022-10-31T01:28:15;3.50;;;1.20;;
60068;SDS011;45945;53.350;55.922;2022-10-31T01:29:16;3.08;;;1.20;;
60068;SDS011;45945;53.350;55.922;2022-10-31T01:30:17;3.40;;;1.23;;
60068;SDS011;45945;53.350;55.922;2022-10-31T01:31:19;3.05;;;1.05;;
60068;SDS011;45945;53.350;55.922;2022-10-31T01:32:22;3.33;;;1.25;;
60068;SDS011;45945;53.350;55.922;2022-10-31T01:33:25;3.22;;;1.17;;
60068;SDS011;45945;53.350;55.922;2022-10-31T01:34:27;4.00;;;1.30;;
60068;SDS011;45945;53.350;55.922;2022-10-31T01:35:28;2.33;;;1.00;;
60068;SDS011;45945;53.350;55.922;2022-10-31T01:36:30;2.97;;;1.08;;
60068;SDS011;45945;53.350;55.922;2022-10-31T01:37:51;2.08;;;0.98;;
60068;SDS011;45945;53.350;55.922;2022-10-31T01:38:53;2.72;;;1.08;;
60068;SDS011;45945;53.350;55.922;2022-10-31T01:39:57;2.50;;;0.90;;
60068;SDS011;45945;53.350;55.922;2022-10-31T01:40:58;2.70;;;0.85;;
60068;SDS011;45945;53.350;55.922;2022-10-31T01:41:59;2.60;;;0.93;;
60068;SDS011;45945;53.350;55.922;2022-10-31T01:43:00;3.25;;;1.00;;
60068;SDS011;45945;53.350;55.922;2022-10-31T01:44:02;2.78;;;1.15;;
60068;SDS011;45945;53.350;55.922;2022-10-31T01:45:24;2.40;;;1.00;;
60068;SDS011;45945;53.350;55.922;2022-10-31T01:46:27;3.00;;;1.17;;
60068;SDS011;45945;53.350;55.922;2022-10-31T01:47:38;2.50;;;1.10;;
60068;SDS011;45945;53.350;55.922;2022-10-31T01:48:44;2.67;;;0.95;;
60068;SDS011;45945;53.350;55.922;2022-10-31T01:49:47;2.65;;;0.98;;
60068;SDS011;45945;53.350;55.922;2022-10-31T01:50:53;1.75;;;0.80;;
60068;SDS011;45945;53.350;55.922;2022-10-31T01:51:57;3.30;;;1.10;;
60068;SDS011;45945;53.350;55.922;2022-10-31T01:53:05;2.78;;;1.08;;
60068;SDS011;45945;53.350;55.922;2022-10-31T01:54:11;2.40;;;0.95;;
60068;SDS011;45945;53.350;55.922;2022-10-31T01:55:16;3.60;;;1.30;;
60068;SDS011;45945;53.350;55.922;2022-10-31T01:56:36;3.13;;;1.10;;
60068;SDS011;45945;53.350;55.922;2022-10-31T01:57:40;3.15;;;1.05;;
60068;SDS011;45945;53.350;55.922;2022-10-31T01:58:44;2.50;;;1.20;;
60068;SDS011;45945;53.350;55.922;2022-10-31T01:59:51;4.20;;;1.50;;
60068;SDS011;45945;53.350;55.922;2022-10-31T02:00:57;2.65;;;1.17;;
60068;SDS011;45945;53.350;55.922;2022-10-31T02:02:00;3.17;;;1.20;;
60068;SDS011;45945;53.350;55.922;2022-10-31T02:03:01;2.90;;;1.30;;
60068;SDS011;45945;53.350;55.922;2022-10-31T02:04:03;3.63;;;1.38;;
60068;SDS011;45945;53.350;55.922;2022-10-31T02:05:06;2.10;;;1.00;;
60068;SDS011;45945;53.350;55.922;2022-10-31T02:06:13;2.47;;;1.00;;
60068;SDS011;45945;53.350;55.922;2022-10-31T02:07:24;1.98;;;0.95;;
60068;SDS011;45945;53.350;55.922;2022-10-31T02:08:33;2.90;;;1.10;;
60068;SDS011;45945;53.350;55.922;2022-10-31T02:09:36;2.92;;;1.25;;
60068;SDS011;45945;53.350;55.922;2022-10-31T02:10:38;2.92;;;1.30;;
60068;SDS011;45945;53.350;55.922;2022-10-31T02:11:43;2.63;;;1.05;;
60068;SDS011;45945;53.350;55.922;2022-10-31T02:12:46;2.40;;;1.02;;
60068;SDS011;45945;53.350;55.922;2022-10-31T02:13:49;1.70;;;0.93;;
60068;SDS011;45945;53.350;55.922;2022-10-31T02:15:10;2.47;;;1.10;;
60068;SDS011;45945;53.350;55.922;2022-10-31T02:16:11;2.25;;;1.08;;
60068;SDS011;45945;53.350;55.922;2022-10-31T02:17:12;2.47;;;1.02;;
60068;SDS011;45945;53.350;55.922;2022-10-31T02:18:14;2.35;;;1.15;;
60068;SDS011;45945;53.350;55.922;2022-10-31T02:22:26;2.58;;;1.10;;
60068;SDS011;45945;53.350;55.922;2022-10-31T02:26:22;4.05;;;1.35;;
60068;SDS011;45945;53.350;55.922;2022-10-31T02:36:53;4.80;;;1.70;;
60068;SDS011;45945;53.350;55.922;2022-10-31T02:40:39;4.95;;;1.70;;
60068;SDS011;45945;53.350;55.922;2022-10-31T02:42:07;3.67;;;1.55;;
60068;SDS011;45945;53.350;55.922;2022-10-31T02:43:21;3.58;;;1.48;;
60068;SDS011;45945;53.350;55.922;2022-10-31T02:47:01;3.85;;;1.50;;
60068;SDS011;45945;53.350;55.922;2022-10-31T02:48:11;3.90;;;1.45;;
60068;SDS011;45945;53.350;55.922;2022-10-31T02:49:39;1.95;;;1.05;;
60068;SDS011;45945;53.350;55.922;2022-10-31T02:50:50;3.50;;;1.70;;
60068;SDS011;45945;53.350;55.922;2022-10-31T02:51:57;3.92;;;1.33;;
60068;SDS011;45945;53.350;55.922;2022-10-31T02:52:58;2.92;;;1.40;;
60068;SDS011;45945;53.350;55.922;2022-10-31T02:54:00;2.20;;;1.10;;
60068;SDS011;45945;53.350;55.922;2022-10-31T02:56:16;2.65;;;1.20;;
60068;SDS011;45945;53.350;55.922;2022-10-31T02:57:20;2.22;;;1.10;;
60068;SDS011;45945;53.350;55.922;2022-10-31T02:58:31;2.85;;;1.42;;
60068;SDS011;45945;53.350;55.922;2022-10-31T02:59:37;3.10;;;1.20;;
60068;SDS011;45945;53.350;55.922;2022-10-31T03:09:10;3.78;;;1.50;;
60068;SDS011;45945;53.350;55.922;2022-10-31T03:11:42;3.47;;;1.40;;
60068;SDS011;45945;53.350;55.922;2022-10-31T03:14:28;2.47;;;1.10;;
60068;SDS011;45945;53.350;55.922;2022-10-31T03:15:40;2.22;;;1.08;;
60068;SDS011;45945;53.350;55.922;2022-10-31T03:16:45;3.88;;;1.70;;
60068;SDS011;45945;53.350;55.922;2022-10-31T03:19:55;3.47;;;1.48;;
60068;SDS011;45945;53.350;55.922;2022-10-31T03:21:03;2.70;;;1.30;;
60068;SDS011;45945;53.350;55.922;2022-10-31T03:22:28;3.45;;;1.40;;
60068;SDS011;45945;53.350;55.922;2022-10-31T03:23:34;2.53;;;1.02;;
60068;SDS011;45945;53.350;55.922;2022-10-31T03:24:38;3.08;;;1.40;;
60068;SDS011;45945;53.350;55.922;2022-10-31T03:25:41;3.35;;;1.52;;
60068;SDS011;45945;53.350;55.922;2022-10-31T03:26:46;3.50;;;1.50;;
60068;SDS011;45945;53.350;55.922;2022-10-31T03:27:52;4.93;;;1.70;;
60068;SDS011;45945;53.350;55.922;2022-10-31T03:29:17;4.43;;;1.90;;
60068;SDS011;45945;53.350;55.922;2022-10-31T03:30:19;3.08;;;1.30;;
60068;SDS011;45945;53.350;55.922;2022-10-31T03:31:33;2.80;;;1.45;;
60068;SDS011;45945;53.350;55.922;2022-10-31T03:33:49;2.65;;;1.35;;
60068;SDS011;45945;53.350;55.922;2022-10-31T03:34:53;3.15;;;1.38;;
60068;SDS011;45945;53.350;55.922;2022-10-31T03:35:58;2.45;;;1.20;;
60068;SDS011;45945;53.350;55.922;2022-10-31T03:37:03;4.03;;;1.80;;
60068;SDS011;45945;53.350;55.922;2022-10-31T03:38:09;4.45;;;1.90;;
60068;SDS011;45945;53.350;55.922;2022-10-31T03:39:12;4.07;;;1.60;;
60068;SDS011;45945;53.350;55.922;2022-10-31T03:40:16;3.15;;;1.30;;
60068;SDS011;45945;53.350;55.922;2022-10-31T03:41:23;4.13;;;1.58;;
60068;SDS011;45945;53.350;55.922;2022-10-31T03:42:32;4.53;;;1.60;;
60068;SDS011;45945;53.350;55.922;2022-10-31T03:43:38;3.53;;;1.15;;
60068;SDS011;45945;53.350;55.922;2022-10-31T03:44:44;4.97;;;2.00;;
60068;SDS011;45945;53.350;55.922;2022-10-31T03:45:49;4.10;;;1.55;;
60068;SDS011;45945;53.350;55.922;2022-10-31T03:46:50;4.40;;;1.50;;
60068;SDS011;45945;53.350;55.922;2022-10-31T03:47:51;3.75;;;1.63;;
60068;SDS011;45945;53.350;55.922;2022-10-31T03:48:55;3.42;;;1.42;;
60068;SDS011;45945;53.350;55.922;2022-10-31T03:49:57;3.10;;;1.25;;
60068;SDS011;45945;53.350;55.922;2022-10-31T03:51:20;3.28;;;1.40;;
60068;SDS011;45945;53.350;55.922;2022-10-31T03:52:28;2.22;;;1.00;;
60068;SDS011;45945;53.350;55.922;2022-10-31T03:53:46;2.88;;;1.38;;
60068;SDS011;45945;53.350;55.922;2022-10-31T03:55:13;4.78;;;1.60;;
60068;SDS011;45945;53.350;55.922;2022-10-31T03:57:44;3.05;;;1.20;;
60068;SDS011;45945;53.350;55.922;2022-10-31T03:59:05;2.08;;;1.10;;
60068;SDS011;45945;53.350;55.922;2022-10-31T04:00:14;3.45;;;1.33;;
60068;SDS011;45945;53.350;55.922;2022-10-31T04:01:19;2.90;;;0.82;;
60068;SDS011;45945;53.350;55.922;2022-10-31T04:02:32;2.75;;;1.30;;
60068;SDS011;45945;53.350;55.922;2022-10-31T04:03:35;3.47;;;1.30;;
60068;SDS011;45945;53.350;55.922;2022-10-31T04:04:39;3.70;;;1.40;;
60068;SDS011;45945;53.350;55.922;2022-10-31T04:05:43;2.95;;;1.27;;
60068;SDS011;45945;53.350;55.922;2022-10-31T04:06:47;3.05;;;1.45;;
60068;SDS011;45945;53.350;55.922;2022-10-31T04:07:51;3.65;;;1.33;;
60068;SDS011;45945;53.350;55.922;2022-10-31T04:08:56;3.90;;;1.33;;
60068;SDS011;45945;53.350;55.922;2022-10-31T04:10:00;2.42;;;1.02;;
60068;SDS011;45945;53.350;55.922;2022-10-31T04:11:04;3.88;;;1.40;;
60068;SDS011;45945;53.350;55.922;2022-10-31T04:12:13;3.42;;;1.50;;
60068;SDS011;45945;53.350;55.922;2022-10-31T04:13:30;3.55;;;1.50;;
60068;SDS011;45945;53.350;55.922;2022-10-31T04:14:56;2.38;;;1.20;;
60068;SDS011;45945;53.350;55.922;2022-10-31T04:15:58;5.15;;;1.20;;
60068;SDS011;45945;53.350;55.922;2022-10-31T04:17:00;3.15;;;1.40;;
60068;SDS011;45945;53.350;55.922;2022-10-31T04:18:09;4.68;;;1.52;;
60068;SDS011;45945;53.350;55.922;2022-10-31T04:19:11;4.15;;;1.50;;
60068;SDS011;45945;53.350;55.922;2022-10-31T04:20:17;4.15;;;1.40;;
60068;SDS011;45945;53.350;55.922;2022-10-31T04:21:18;3.72;;;1.20;;
60068;SDS011;45945;53.350;55.922;2022-10-31T04:22:20;4.80;;;1.40;;
60068;SDS011;45945;53.350;55.922;2022-10-31T04:23:39;2.63;;;1.30;;
60068;SDS011;45945;53.350;55.922;2022-10-31T04:24:51;2.80;;;1.13;;
60068;SDS011;45945;53.350;55.922;2022-10-31T04:25:52;4.72;;;1.63;;
60068;SDS011;45945;53.350;55.922;2022-10-31T04:26:54;2.20;;;1.05;;
60068;SDS011;45945;53.350;55.922;2022-10-31T04:27:57;2.33;;;1.17;;
60068;SDS011;45945;53.350;55.922;2022-10-31T04:28:58;3.15;;;1.30;;
60068;SDS011;45945;53.350;55.922;2022-10-31T04:30:01;3.65;;;1.65;;
60068;SDS011;45945;53.350;55.922;2022-10-31T04:31:04;3.95;;;1.60;;
60068;SDS011;45945;53.350;55.922;2022-10-31T04:32:05;2.88;;;1.50;;
60068;SDS011;45945;53.350;55.922;2022-10-31T04:33:06;4.65;;;1.55;;
60068;SDS011;45945;53.350;55.922;2022-10-31T04:34:07;3.38;;;1.52;;
60068;SDS011;45945;53.350;55.922;2022-10-31T04:35:08;2.13;;;1.20;;
60068;SDS011;45945;53.350;55.922;2022-10-31T04:36:09;5.00;;;1.88;;
60068;SDS011;45945;53.350;55.922;2022-10-31T04:37:11;3.30;;;1.58;;
60068;SDS011;45945;53.350;55.922;2022-10-31T04:38:12;3.08;;;1.30;;
60068;SDS011;45945;53.350;55.922;2022-10-31T04:39:14;2.20;;;1.10;;
60068;SDS011;45945;53.350;55.922;2022-10-31T04:40:22;2.13;;;1.20;;
60068;SDS011;45945;53.350;55.922;2022-10-31T04:41:41;3.65;;;1.50;;
60068;SDS011;45945;53.350;55.922;2022-10-31T04:42:47;4.03;;;1.67;;
60068;SDS011;45945;53.350;55.922;2022-10-31T04:43:49;3.78;;;1.35;;
60068;SDS011;45945;53.350;55.922;2022-10-31T04:44:50;4.57;;;1.60;;
60068;SDS011;45945;53.350;55.922;2022-10-31T04:45:51;2.78;;;1.20;;
60068;SDS011;45945;53.350;55.922;2022-10-31T04:46:53;3.35;;;1.15;;
60068;SDS011;45945;53.350;55.922;2022-10-31T04:47:53;4.90;;;2.25;;
60068;SDS011;45945;53.350;55.922;2022-10-31T04:48:54;5.55;;;2.13;;
60068;SDS011;45945;53.350;55.922;2022-10-31T04:49:55;4.13;;;1.90;;
60068;SDS011;45945;53.350;55.922;2022-10-31T04:51:00;2.97;;;1.17;;
60068;SDS011;45945;53.350;55.922;2022-10-31T04:52:01;4.20;;;1.92;;
60068;SDS011;45945;53.350;55.922;2022-10-31T04:53:03;3.97;;;1.83;;
60068;SDS011;45945;53.350;55.922;2022-10-31T04:54:11;3.50;;;1.60;;
60068;SDS011;45945;53.350;55.922;2022-10-31T04:55:12;3.95;;;1.83;;
60068;SDS011;45945;53.350;55.922;2022-10-31T04:56:32;3.92;;;1.52;;
60068;SDS011;45945;53.350;55.922;2022-10-31T04:57:43;6.70;;;2.95;;
60068;SDS011;45945;53.350;55.922;2022-10-31T04:58:46;4.43;;;2.05;;
60068;SDS011;45945;53.350;55.922;2022-10-31T04:59:47;3.60;;;1.95;;
60068;SDS011;45945;53.350;55.922;2022-10-31T05:00:51;4.13;;;1.95;;
60068;SDS011;45945;53.350;55.922;2022-10-31T05:01:53;2.85;;;1.30;;
60068;SDS011;45945;53.350;55.922;2022-10-31T05:03:13;4.25;;;2.13;;
60068;SDS011;45945;53.350;55.922;2022-10-31T05:04:14;3.67;;;1.52;;
60068;SDS011;45945;53.350;55.922;2022-10-31T05:05:16;5.35;;;2.50;;
60068;SDS011;45945;53.350;55.922;2022-10-31T05:06:19;5.20;;;2.42;;
60068;SDS011;45945;53.350;55.922;2022-10-31T05:07:20;4.85;;;2.78;;
60068;SDS011;45945;53.350;55.922;2022-10-31T05:08:21;5.30;;;2.45;;
60068;SDS011;45945;53.350;55.922;2022-10-31T05:09:27;4.15;;;2.20;;
60068;SDS011;45945;53.350;55.922;2022-10-31T05:10:29;5.05;;;1.92;;
60068;SDS011;45945;53.350;55.922;2022-10-31T05:11:33;4.45;;;1.95;;
60068;SDS011;45945;53.350;55.922;2022-10-31T05:12:56;4.25;;;2.00;;
60068;SDS011;45945;53.350;55.922;2022-10-31T05:14:17;4.38;;;1.90;;
60068;SDS011;45945;53.350;55.922;2022-10-31T05:15:36;5.43;;;2.90;;
60068;SDS011;45945;53.350;55.922;2022-10-31T05:16:57;5.93;;;2.58;;
60068;SDS011;45945;53.350;55.922;2022-10-31T05:18:20;4.82;;;2.13;;
60068;SDS011;45945;53.350;55.922;2022-10-31T05:19:42;5.80;;;2.83;;
60068;SDS011;45945;53.350;55.922;2022-10-31T05:21:05;5.47;;;1.95;;
60068;SDS011;45945;53.350;55.922;2022-10-31T05:22:12;4.65;;;1.83;;
60068;SDS011;45945;53.350;55.922;2022-10-31T05:23:13;6.47;;;2.95;;
60068;SDS011;45945;53.350;55.922;2022-10-31T05:24:15;6.88;;;3.50;;
60068;SDS011;45945;53.350;55.922;2022-10-31T05:25:21;5.30;;;2.78;;
60068;SDS011;45945;53.350;55.922;2022-10-31T05:26:24;6.90;;;3.50;;
60068;SDS011;45945;53.350;55.922;2022-10-31T05:27:27;5.75;;;2.83;;
60068;SDS011;45945;53.350;55.922;2022-10-31T05:28:28;6.88;;;2.75;;
60068;SDS011;45945;53.350;55.922;2022-10-31T05:29:29;5.10;;;2.60;;
60068;SDS011;45945;53.350;55.922;2022-10-31T05:30:35;7.95;;;4.07;;
60068;SDS011;45945;53.350;55.922;2022-10-31T05:31:37;5.43;;;2.92;;
60068;SDS011;45945;53.350;55.922;2022-10-31T05:32:41;4.75;;;2.40;;
60068;SDS011;45945;53.350;55.922;2022-10-31T05:34:22;7.07;;;3.40;;
60068;SDS011;45945;53.350;55.922;2022-10-31T05:35:44;6.57;;;3.50;;
60068;SDS011;45945;53.350;55.922;2022-10-31T05:37:05;5.70;;;2.83;;
60068;SDS011;45945;53.350;55.922;2022-10-31T05:38:06;5.03;;;2.70;;
60068;SDS011;45945;53.350;55.922;2022-10-31T05:39:07;6.32;;;3.45;;
60068;SDS011;45945;53.350;55.922;2022-10-31T05:40:13;6.57;;;2.90;;
60068;SDS011;45945;53.350;55.922;2022-10-31T05:41:16;6.93;;;3.72;;
60068;SDS011;45945;53.350;55.922;2022-10-31T05:42:20;6.57;;;3.05;;
60068;SDS011;45945;53.350;55.922;2022-10-31T05:43:22;6.68;;;3.63;;
60068;SDS011;45945;53.350;55.922;2022-10-31T05:44:23;6.53;;;3.35;;
60068;SDS011;45945;53.350;55.922;2022-10-31T05:45:31;5.40;;;2.83;;
60068;SDS011;45945;53.350;55.922;2022-10-31T05:46:35;4.68;;;2.17;;
60068;SDS011;45945;53.350;55.922;2022-10-31T05:48:07;4.80;;;2.30;;
60068;SDS011;45945;53.350;55.922;2022-10-31T05:49:29;7.35;;;3.20;;
60068;SDS011;45945;53.350;55.922;2022-10-31T05:50:48;6.28;;;2.53;;
60068;SDS011;45945;53.350;55.922;2022-10-31T05:51:50;5.80;;;3.47;;
60068;SDS011;45945;53.350;55.922;2022-10-31T05:52:55;6.82;;;3.67;;
60068;SDS011;45945;53.350;55.922;2022-10-31T05:54:09;5.22;;;2.53;;
60068;SDS011;45945;53.350;55.922;2022-10-31T05:55:12;5.68;;;3.33;;
60068;SDS011;45945;53.350;55.922;2022-10-31T05:56:21;7.88;;;4.65;;
60068;SDS011;45945;53.350;55.922;2022-10-31T05:57:23;8.40;;;4.53;;
60068;SDS011;45945;53.350;55.922;2022-10-31T05:58:24;5.53;;;2.80;;
60068;SDS011;45945;53.350;55.922;2022-10-31T05:59:39;8.80;;;4.72;;
60068;SDS011;45945;53.350;55.922;2022-10-31T06:00:41;7.57;;;4.70;;
60068;SDS011;45945;53.350;55.922;2022-10-31T06:01:43;8.35;;;4.57;;
60068;SDS011;45945;53.350;55.922;2022-10-31T06:03:04;6.07;;;3.13;;
60068;SDS011;45945;53.350;55.922;2022-10-31T06:04:24;6.30;;;3.75;;
60068;SDS011;45945;53.350;55.922;2022-10-31T06:05:25;8.40;;;4.80;;
60068;SDS011;45945;53.350;55.922;2022-10-31T06:06:27;7.28;;;4.25;;
60068;SDS011;45945;53.350;55.922;2022-10-31T06:07:31;6.78;;;3.83;;
60068;SDS011;45945;53.350;55.922;2022-10-31T06:08:34;7.78;;;4.75;;
60068;SDS011;45945;53.350;55.922;2022-10-31T06:09:39;7.72;;;4.70;;
60068;SDS011;45945;53.350;55.922;2022-10-31T06:10:41;8.48;;;4.70;;
60068;SDS011;45945;53.350;55.922;2022-10-31T06:11:42;7.50;;;3.88;;
60068;SDS011;45945;53.350;55.922;2022-10-31T06:12:43;7.20;;;3.30;;
60068;SDS011;45945;53.350;55.922;2022-10-31T06:13:49;7.22;;;4.03;;
60068;SDS011;45945;53.350;55.922;2022-10-31T06:14:55;8.20;;;4.05;;
60068;SDS011;45945;53.350;55.922;2022-10-31T06:15:56;10.52;;;4.90;;
60068;SDS011;45945;53.350;55.922;2022-10-31T06:17:01;7.00;;;3.85;;
60068;SDS011;45945;53.350;55.922;2022-10-31T06:18:25;8.35;;;4.97;;
60068;SDS011;45945;53.350;55.922;2022-10-31T06:19:28;7.05;;;4.10;;
60068;SDS011;45945;53.350;55.922;2022-10-31T06:20:29;8.10;;;3.95;;
60068;SDS011;45945;53.350;55.922;2022-10-31T06:21:37;7.40;;;3.78;;
60068;SDS011;45945;53.350;55.922;2022-10-31T06:22:38;7.35;;;4.15;;
60068;SDS011;45945;53.350;55.922;2022-10-31T06:23:39;8.45;;;4.68;;
60068;SDS011;45945;53.350;55.922;2022-10-31T06:25:06;10.63;;;5.13;;
60068;SDS011;45945;53.350;55.922;2022-10-31T06:26:11;8.90;;;5.07;;
60068;SDS011;45945;53.350;55.922;2022-10-31T06:27:12;9.80;;;4.97;;
60068;SDS011;45945;53.350;55.922;2022-10-31T06:28:13;8.88;;;5.15;;
60068;SDS011;45945;53.350;55.922;2022-10-31T06:29:46;8.60;;;4.72;;
60068;SDS011;45945;53.350;55.922;2022-10-31T06:30:56;8.52;;;5.32;;
60068;SDS011;45945;53.350;55.922;2022-10-31T06:31:58;9.73;;;5.30;;
60068;SDS011;45945;53.350;55.922;2022-10-31T06:33:04;8.90;;;4.50;;
60068;SDS011;45945;53.350;55.922;2022-10-31T06:34:24;9.88;;;5.22;;
60068;SDS011;45945;53.350;55.922;2022-10-31T06:35:25;10.52;;;6.30;;
60068;SDS011;45945;53.350;55.922;2022-10-31T06:36:26;9.00;;;4.50;;
60068;SDS011;45945;53.350;55.922;2022-10-31T06:37:27;12.85;;;6.97;;
60068;SDS011;45945;53.350;55.922;2022-10-31T06:38:35;8.57;;;4.32;;
60068;SDS011;45945;53.350;55.922;2022-10-31T06:39:57;10.85;;;4.78;;
60068;SDS011;45945;53.350;55.922;2022-10-31T06:41:01;10.15;;;4.95;;
60068;SDS011;45945;53.350;55.922;2022-10-31T06:42:11;11.10;;;5.35;;
60068;SDS011;45945;53.350;55.922;2022-10-31T06:43:12;11.07;;;6.07;;
60068;SDS011;45945;53.350;55.922;2022-10-31T06:44:15;11.73;;;5.68;;
60068;SDS011;45945;53.350;55.922;2022-10-31T06:45:28;11.57;;;6.25;;
60068;SDS011;45945;53.350;55.922;2022-10-31T06:46:55;9.25;;;4.22;;
60068;SDS011;45945;53.350;55.922;2022-10-31T06:48:19;12.70;;;6.22;;
60068;SDS011;45945;53.350;55.922;2022-10-31T06:49:53;10.60;;;6.25;;
60068;SDS011;45945;53.350;55.922;2022-10-31T06:50:57;11.10;;;5.68;;
60068;SDS011;45945;53.350;55.922;2022-10-31T06:51:59;10.45;;;5.80;;
60068;SDS011;45945;53.350;55.922;2022-10-31T06:53:00;9.90;;;5.85;;
60068;SDS011;45945;53.350;55.922;2022-10-31T06:54:02;10.25;;;6.57;;
60068;SDS011;45945;53.350;55.922;2022-10-31T06:55:03;11.23;;;7.10;;
60068;SDS011;45945;53.350;55.922;2022-10-31T06:56:06;10.70;;;5.85;;
60068;SDS011;45945;53.350;55.922;2022-10-31T06:57:12;7.22;;;4.07;;
60068;SDS011;45945;53.350;55.922;2022-10-31T06:58:13;9.32;;;5.28;;
60068;SDS011;45945;53.350;55.922;2022-10-31T06:59:17;12.90;;;7.05;;
60068;SDS011;45945;53.350;55.922;2022-10-31T07:00:36;11.18;;;6.07;;
60068;SDS011;45945;53.350;55.922;2022-10-31T07:01:40;9.60;;;5.13;;
60068;SDS011;45945;53.350;55.922;2022-10-31T07:02:41;10.68;;;6.57;;
60068;SDS011;45945;53.350;55.922;2022-10-31T07:03:42;11.05;;;6.25;;
60068;SDS011;45945;53.350;55.922;2022-10-31T07:04:43;10.98;;;5.53;;
60068;SDS011;45945;53.350;55.922;2022-10-31T07:05:47;8.73;;;4.72;;
60068;SDS011;45945;53.350;55.922;2022-10-31T07:07:07;9.32;;;5.22;;
60068;SDS011;45945;53.350;55.922;2022-10-31T07:08:11;8.07;;;5.10;;
60068;SDS011;45945;53.350;55.922;2022-10-31T07:09:13;8.85;;;4.78;;
60068;SDS011;45945;53.350;55.922;2022-10-31T07:10:14;8.70;;;5.15;;